sensor_id;sensor_type;location;lat;lon;timestamp;P1;durP1;ratioP1;P2;durP2;ratioP2
15944;SDS011;30172;48.832;8.732;2023-02-13T00:02:13;27.17;;;15.23;;
15944;SDS011;30172;48.832;8.732;2023-02-13T00:04:39;24.20;;;14.60;;
15944;SDS011;30172;48.832;8.732;2023-02-13T00:07:06;25.67;;;14.80;;
15944;SDS011;30172;48.832;8.732;2023-02-13T00:09:31;21.17;;;14.17;;
15944;SDS011;30172;48.832;8.732;2023-02-13T00:11:57;25.73;;;15.30;;
15944;SDS011;30172;48.832;8.732;2023-02-13T00:14:22;25.30;;;15.03;;
15944;SDS011;30172;48.832;8.732;2023-02-13T00:16:47;28.53;;;15.43;;
15944;SDS011;30172;48.832;8.732;2023-02-13T00:19:13;24.30;;;15.17;;
15944;SDS011;30172;48.832;8.732;2023-02-13T00:21:38;24.63;;;15.53;;
15944;SDS011;30172;48.832;8.732;2023-02-13T00:24:03;25.00;;;15.40;;
15944;SDS011;30172;48.832;8.732;2023-02-13T00:26:29;27.13;;;16.50;;
15944;SDS011;30172;48.832;8.732;2023-02-13T00:28:55;27.23;;;15.83;;
15944;SDS011;30172;48.832;8.732;2023-02-13T00:31:20;28.83;;;16.13;;
15944;SDS011;30172;48.832;8.732;2023-02-13T00:33:45;30.50;;;16.07;;
15944;SDS011;30172;48.832;8.732;2023-02-13T00:36:12;29.00;;;15.87;;
15944;SDS011;30172;48.832;8.732;2023-02-13T00:38:39;25.80;;;16.60;;
15944;SDS011;30172;48.832;8.732;2023-02-13T00:41:05;30.30;;;17.10;;
15944;SDS011;30172;48.832;8.732;2023-02-13T00:43:31;24.83;;;15.83;;
15944;SDS011;30172;48.832;8.732;2023-02-13T00:45:57;26.53;;;16.03;;
15944;SDS011;30172;48.832;8.732;2023-02-13T00:48:22;29.47;;;17.20;;
15944;SDS011;30172;48.832;8.732;2023-02-13T00:50:48;28.73;;;15.43;;
15944;SDS011;30172;48.832;8.732;2023-02-13T00:53:15;27.23;;;16.43;;
15944;SDS011;30172;48.832;8.732;2023-02-13T00:55:41;29.37;;;16.57;;
15944;SDS011;30172;48.832;8.732;2023-02-13T00:58:06;29.37;;;17.50;;
15944;SDS011;30172;48.832;8.732;2023-02-13T01:00:31;35.37;;;17.53;;
15944;SDS011;30172;48.832;8.732;2023-02-13T01:02:57;29.50;;;17.07;;
15944;SDS011;30172;48.832;8.732;2023-02-13T01:05:22;33.57;;;20.23;;
15944;SDS011;30172;48.832;8.732;2023-02-13T01:07:48;34.77;;;18.57;;
15944;SDS011;30172;48.832;8.732;2023-02-13T01:10:14;35.90;;;20.20;;
15944;SDS011;30172;48.832;8.732;2023-02-13T01:12:39;34.17;;;19.40;;
15944;SDS011;30172;48.832;8.732;2023-02-13T01:15:05;31.93;;;19.13;;
15944;SDS011;30172;48.832;8.732;2023-02-13T01:17:30;33.00;;;18.73;;
15944;SDS011;30172;48.832;8.732;2023-02-13T01:19:56;33.63;;;20.23;;
15944;SDS011;30172;48.832;8.732;2023-02-13T01:22:21;37.37;;;20.00;;
15944;SDS011;30172;48.832;8.732;2023-02-13T01:24:46;37.80;;;20.10;;
15944;SDS011;30172;48.832;8.732;2023-02-13T01:27:12;36.13;;;20.73;;
15944;SDS011;30172;48.832;8.732;2023-02-13T01:29:37;34.37;;;20.13;;
15944;SDS011;30172;48.832;8.732;2023-02-13T01:32:02;29.93;;;19.10;;
15944;SDS011;30172;48.832;8.732;2023-02-13T01:34:29;38.73;;;21.07;;
15944;SDS011;30172;48.832;8.732;2023-02-13T01:36:55;38.50;;;21.07;;
15944;SDS011;30172;48.832;8.732;2023-02-13T01:39:20;35.87;;;20.50;;
15944;SDS011;30172;48.832;8.732;2023-02-13T01:41:46;34.60;;;18.60;;
15944;SDS011;30172;48.832;8.732;2023-02-13T01:47:09;33.07;;;18.23;;
15944;SDS011;30172;48.832;8.732;2023-02-13T01:49:36;30.33;;;18.57;;
15944;SDS011;30172;48.832;8.732;2023-02-13T01:52:02;32.77;;;18.37;;
15944;SDS011;30172;48.832;8.732;2023-02-13T01:54:28;35.93;;;17.90;;
15944;SDS011;30172;48.832;8.732;2023-02-13T01:57:03;29.27;;;17.13;;
15944;SDS011;30172;48.832;8.732;2023-02-13T01:59:32;26.70;;;16.27;;
15944;SDS011;30172;48.832;8.732;2023-02-13T02:02:00;34.60;;;15.70;;
15944;SDS011;30172;48.832;8.732;2023-02-13T02:04:31;26.20;;;16.23;;
15944;SDS011;30172;48.832;8.732;2023-02-13T02:06:59;26.80;;;15.57;;
15944;SDS011;30172;48.832;8.732;2023-02-13T02:09:28;28.57;;;14.63;;
15944;SDS011;30172;48.832;8.732;2023-02-13T02:11:58;26.13;;;15.07;;
15944;SDS011;30172;48.832;8.732;2023-02-13T02:14:26;21.87;;;13.63;;
15944;SDS011;30172;48.832;8.732;2023-02-13T02:16:51;23.93;;;14.47;;
15944;SDS011;30172;48.832;8.732;2023-02-13T02:19:25;19.83;;;12.30;;
15944;SDS011;30172;48.832;8.732;2023-02-13T02:36:22;20.00;;;11.10;;
15944;SDS011;30172;48.832;8.732;2023-02-13T02:39:07;21.53;;;11.67;;
15944;SDS011;30172;48.832;8.732;2023-02-13T02:41:39;15.80;;;10.50;;
15944;SDS011;30172;48.832;8.732;2023-02-13T02:53:05;16.63;;;9.73;;
15944;SDS011;30172;48.832;8.732;2023-02-13T02:58:20;17.73;;;10.53;;
15944;SDS011;30172;48.832;8.732;2023-02-13T03:01:09;17.70;;;10.47;;
15944;SDS011;30172;48.832;8.732;2023-02-13T03:03:56;14.83;;;9.60;;
15944;SDS011;30172;48.832;8.732;2023-02-13T03:06:44;16.80;;;10.00;;
15944;SDS011;30172;48.832;8.732;2023-02-13T03:09:14;16.87;;;9.43;;
15944;SDS011;30172;48.832;8.732;2023-02-13T03:12:01;14.60;;;9.23;;
15944;SDS011;30172;48.832;8.732;2023-02-13T03:14:45;17.53;;;8.67;;
15944;SDS011;30172;48.832;8.732;2023-02-13T03:17:11;15.70;;;8.50;;
15944;SDS011;30172;48.832;8.732;2023-02-13T03:31:43;9.17;;;6.33;;
15944;SDS011;30172;48.832;8.732;2023-02-13T03:34:21;12.90;;;7.13;;
15944;SDS011;30172;48.832;8.732;2023-02-13T03:37:01;9.93;;;7.17;;
15944;SDS011;30172;48.832;8.732;2023-02-13T03:39:47;9.40;;;5.83;;
15944;SDS011;30172;48.832;8.732;2023-02-13T03:44:56;9.47;;;6.43;;
15944;SDS011;30172;48.832;8.732;2023-02-13T03:47:42;10.50;;;6.20;;
15944;SDS011;30172;48.832;8.732;2023-02-13T03:50:09;7.70;;;5.47;;
15944;SDS011;30172;48.832;8.732;2023-02-13T03:52:50;9.40;;;5.53;;
15944;SDS011;30172;48.832;8.732;2023-02-13T03:55:26;8.40;;;5.70;;
15944;SDS011;30172;48.832;8.732;2023-02-13T03:58:19;8.87;;;4.83;;
15944;SDS011;30172;48.832;8.732;2023-02-13T04:01:07;9.17;;;5.43;;
15944;SDS011;30172;48.832;8.732;2023-02-13T04:06:58;6.73;;;4.37;;
15944;SDS011;30172;48.832;8.732;2023-02-13T04:09:26;8.47;;;4.90;;
15944;SDS011;30172;48.832;8.732;2023-02-13T04:11:55;8.10;;;4.97;;
15944;SDS011;30172;48.832;8.732;2023-02-13T04:14:30;7.93;;;4.90;;
15944;SDS011;30172;48.832;8.732;2023-02-13T04:17:04;7.43;;;5.07;;
15944;SDS011;30172;48.832;8.732;2023-02-13T04:19:32;7.97;;;5.10;;
15944;SDS011;30172;48.832;8.732;2023-02-13T04:21:58;7.73;;;4.77;;
15944;SDS011;30172;48.832;8.732;2023-02-13T04:24:25;8.73;;;5.20;;
15944;SDS011;30172;48.832;8.732;2023-02-13T04:26:51;8.97;;;5.53;;
15944;SDS011;30172;48.832;8.732;2023-02-13T04:29:17;8.17;;;5.43;;
15944;SDS011;30172;48.832;8.732;2023-02-13T04:31:42;7.73;;;4.97;;
15944;SDS011;30172;48.832;8.732;2023-02-13T04:34:07;8.77;;;5.70;;
15944;SDS011;30172;48.832;8.732;2023-02-13T04:36:33;7.83;;;5.10;;
15944;SDS011;30172;48.832;8.732;2023-02-13T04:38:58;8.47;;;4.97;;
15944;SDS011;30172;48.832;8.732;2023-02-13T04:41:23;9.73;;;5.60;;
15944;SDS011;30172;48.832;8.732;2023-02-13T04:43:48;7.93;;;5.00;;
15944;SDS011;30172;48.832;8.732;2023-02-13T04:46:16;7.50;;;4.93;;
15944;SDS011;30172;48.832;8.732;2023-02-13T04:48:41;7.27;;;5.27;;
15944;SDS011;30172;48.832;8.732;2023-02-13T04:51:07;8.13;;;5.53;;
15944;SDS011;30172;48.832;8.732;2023-02-13T04:53:32;7.67;;;5.10;;
15944;SDS011;30172;48.832;8.732;2023-02-13T04:55:57;8.67;;;5.50;;
15944;SDS011;30172;48.832;8.732;2023-02-13T04:58:23;8.53;;;5.20;;
15944;SDS011;30172;48.832;8.732;2023-02-13T05:00:48;7.97;;;5.77;;
15944;SDS011;30172;48.832;8.732;2023-02-13T05:03:13;8.07;;;5.93;;
15944;SDS011;30172;48.832;8.732;2023-02-13T05:05:39;10.43;;;6.30;;
15944;SDS011;30172;48.832;8.732;2023-02-13T05:08:07;7.43;;;4.60;;
15944;SDS011;30172;48.832;8.732;2023-02-13T05:10:33;6.77;;;4.80;;
15944;SDS011;30172;48.832;8.732;2023-02-13T05:12:58;7.27;;;4.37;;
15944;SDS011;30172;48.832;8.732;2023-02-13T05:15:24;8.17;;;5.43;;
15944;SDS011;30172;48.832;8.732;2023-02-13T05:17:49;6.63;;;4.40;;
15944;SDS011;30172;48.832;8.732;2023-02-13T05:20:15;7.13;;;5.33;;
15944;SDS011;30172;48.832;8.732;2023-02-13T05:22:44;8.50;;;6.50;;
15944;SDS011;30172;48.832;8.732;2023-02-13T05:25:32;8.23;;;5.40;;
15944;SDS011;30172;48.832;8.732;2023-02-13T05:27:57;8.23;;;5.67;;
15944;SDS011;30172;48.832;8.732;2023-02-13T05:30:23;8.60;;;5.77;;
15944;SDS011;30172;48.832;8.732;2023-02-13T05:32:48;8.83;;;5.17;;
15944;SDS011;30172;48.832;8.732;2023-02-13T05:35:17;8.77;;;5.80;;
15944;SDS011;30172;48.832;8.732;2023-02-13T05:37:43;8.57;;;5.73;;
15944;SDS011;30172;48.832;8.732;2023-02-13T05:40:09;8.80;;;6.00;;
15944;SDS011;30172;48.832;8.732;2023-02-13T05:42:35;8.10;;;5.87;;
15944;SDS011;30172;48.832;8.732;2023-02-13T05:45:00;11.07;;;6.27;;
15944;SDS011;30172;48.832;8.732;2023-02-13T05:47:26;9.20;;;6.33;;
15944;SDS011;30172;48.832;8.732;2023-02-13T05:49:51;10.07;;;6.43;;
15944;SDS011;30172;48.832;8.732;2023-02-13T05:52:16;9.80;;;5.80;;
15944;SDS011;30172;48.832;8.732;2023-02-13T05:54:41;10.93;;;6.40;;
15944;SDS011;30172;48.832;8.732;2023-02-13T05:57:07;10.97;;;6.90;;
15944;SDS011;30172;48.832;8.732;2023-02-13T05:59:32;10.23;;;6.47;;
15944;SDS011;30172;48.832;8.732;2023-02-13T06:01:57;8.47;;;6.00;;
15944;SDS011;30172;48.832;8.732;2023-02-13T06:04:23;10.90;;;6.87;;
15944;SDS011;30172;48.832;8.732;2023-02-13T06:06:51;10.73;;;7.47;;
15944;SDS011;30172;48.832;8.732;2023-02-13T06:09:17;10.80;;;7.60;;
15944;SDS011;30172;48.832;8.732;2023-02-13T06:11:42;10.87;;;6.53;;
15944;SDS011;30172;48.832;8.732;2023-02-13T06:14:07;11.40;;;6.87;;
15944;SDS011;30172;48.832;8.732;2023-02-13T06:16:33;10.50;;;7.47;;
15944;SDS011;30172;48.832;8.732;2023-02-13T06:18:58;12.73;;;7.63;;
15944;SDS011;30172;48.832;8.732;2023-02-13T06:21:23;11.60;;;7.37;;
15944;SDS011;30172;48.832;8.732;2023-02-13T06:23:49;12.07;;;8.27;;
15944;SDS011;30172;48.832;8.732;2023-02-13T06:26:14;11.90;;;7.53;;
15944;SDS011;30172;48.832;8.732;2023-02-13T06:28:40;12.83;;;7.87;;
15944;SDS011;30172;48.832;8.732;2023-02-13T06:31:05;12.67;;;8.03;;
15944;SDS011;30172;48.832;8.732;2023-02-13T06:33:30;13.17;;;7.57;;
15944;SDS011;30172;48.832;8.732;2023-02-13T06:35:56;10.83;;;7.53;;
15944;SDS011;30172;48.832;8.732;2023-02-13T06:38:21;11.93;;;7.67;;
15944;SDS011;30172;48.832;8.732;2023-02-13T06:40:47;14.33;;;8.40;;
15944;SDS011;30172;48.832;8.732;2023-02-13T06:43:12;14.47;;;9.27;;
15944;SDS011;30172;48.832;8.732;2023-02-13T06:45:39;13.73;;;9.03;;
15944;SDS011;30172;48.832;8.732;2023-02-13T06:48:04;10.73;;;7.77;;
15944;SDS011;30172;48.832;8.732;2023-02-13T06:50:30;12.47;;;7.90;;
15944;SDS011;30172;48.832;8.732;2023-02-13T06:52:55;13.73;;;8.80;;
15944;SDS011;30172;48.832;8.732;2023-02-13T06:55:20;15.50;;;8.53;;
15944;SDS011;30172;48.832;8.732;2023-02-13T06:57:46;13.17;;;8.57;;
15944;SDS011;30172;48.832;8.732;2023-02-13T07:00:12;13.40;;;8.53;;
15944;SDS011;30172;48.832;8.732;2023-02-13T07:02:38;14.23;;;8.83;;
15944;SDS011;30172;48.832;8.732;2023-02-13T07:05:04;12.30;;;7.97;;
15944;SDS011;30172;48.832;8.732;2023-02-13T07:07:34;14.60;;;9.33;;
15944;SDS011;30172;48.832;8.732;2023-02-13T07:10:00;13.13;;;8.73;;
15944;SDS011;30172;48.832;8.732;2023-02-13T07:12:26;16.37;;;9.80;;
15944;SDS011;30172;48.832;8.732;2023-02-13T07:14:51;13.83;;;8.63;;
15944;SDS011;30172;48.832;8.732;2023-02-13T07:17:16;14.57;;;9.23;;
15944;SDS011;30172;48.832;8.732;2023-02-13T07:19:42;14.57;;;8.87;;
15944;SDS011;30172;48.832;8.732;2023-02-13T07:22:07;15.43;;;9.47;;
15944;SDS011;30172;48.832;8.732;2023-02-13T07:24:32;17.87;;;11.80;;
15944;SDS011;30172;48.832;8.732;2023-02-13T07:26:59;19.63;;;12.37;;
15944;SDS011;30172;48.832;8.732;2023-02-13T07:29:24;19.20;;;11.63;;
15944;SDS011;30172;48.832;8.732;2023-02-13T07:31:50;16.07;;;10.80;;
15944;SDS011;30172;48.832;8.732;2023-02-13T07:34:15;16.53;;;10.57;;
15944;SDS011;30172;48.832;8.732;2023-02-13T07:36:40;15.93;;;9.87;;
15944;SDS011;30172;48.832;8.732;2023-02-13T07:39:06;16.30;;;9.57;;
15944;SDS011;30172;48.832;8.732;2023-02-13T07:41:31;14.03;;;10.33;;
15944;SDS011;30172;48.832;8.732;2023-02-13T07:43:56;14.17;;;9.27;;
15944;SDS011;30172;48.832;8.732;2023-02-13T07:46:22;14.50;;;9.40;;
15944;SDS011;30172;48.832;8.732;2023-02-13T07:48:47;17.10;;;9.97;;
15944;SDS011;30172;48.832;8.732;2023-02-13T07:51:12;14.90;;;9.30;;
15944;SDS011;30172;48.832;8.732;2023-02-13T07:53:38;17.70;;;11.30;;
15944;SDS011;30172;48.832;8.732;2023-02-13T07:56:04;15.23;;;9.23;;
15944;SDS011;30172;48.832;8.732;2023-02-13T07:58:32;14.80;;;8.83;;
15944;SDS011;30172;48.832;8.732;2023-02-13T08:00:58;14.83;;;9.20;;
15944;SDS011;30172;48.832;8.732;2023-02-13T08:03:23;14.33;;;9.10;;
15944;SDS011;30172;48.832;8.732;2023-02-13T08:05:48;15.43;;;9.57;;
15944;SDS011;30172;48.832;8.732;2023-02-13T08:08:14;13.40;;;9.60;;
15944;SDS011;30172;48.832;8.732;2023-02-13T08:10:40;15.37;;;9.97;;
15944;SDS011;30172;48.832;8.732;2023-02-13T08:13:23;14.23;;;8.60;;
15944;SDS011;30172;48.832;8.732;2023-02-13T08:15:49;16.10;;;9.07;;
15944;SDS011;30172;48.832;8.732;2023-02-13T08:18:14;15.20;;;9.17;;
15944;SDS011;30172;48.832;8.732;2023-02-13T08:20:39;14.13;;;9.30;;
15944;SDS011;30172;48.832;8.732;2023-02-13T08:23:05;13.27;;;8.03;;
15944;SDS011;30172;48.832;8.732;2023-02-13T08:25:32;12.73;;;9.47;;
15944;SDS011;30172;48.832;8.732;2023-02-13T08:27:58;13.47;;;8.70;;
15944;SDS011;30172;48.832;8.732;2023-02-13T08:30:24;11.83;;;7.83;;
15944;SDS011;30172;48.832;8.732;2023-02-13T08:32:50;13.77;;;8.40;;
15944;SDS011;30172;48.832;8.732;2023-02-13T08:35:15;12.80;;;7.77;;
15944;SDS011;30172;48.832;8.732;2023-02-13T08:37:40;12.33;;;7.97;;
15944;SDS011;30172;48.832;8.732;2023-02-13T08:40:06;12.87;;;8.80;;
15944;SDS011;30172;48.832;8.732;2023-02-13T08:42:34;12.57;;;7.90;;
15944;SDS011;30172;48.832;8.732;2023-02-13T08:45:00;12.37;;;7.67;;
15944;SDS011;30172;48.832;8.732;2023-02-13T08:47:25;12.83;;;7.60;;
15944;SDS011;30172;48.832;8.732;2023-02-13T08:49:50;12.93;;;7.80;;
15944;SDS011;30172;48.832;8.732;2023-02-13T08:52:15;12.40;;;7.53;;
15944;SDS011;30172;48.832;8.732;2023-02-13T08:54:41;12.40;;;8.43;;
15944;SDS011;30172;48.832;8.732;2023-02-13T08:57:06;11.43;;;7.90;;
15944;SDS011;30172;48.832;8.732;2023-02-13T08:59:32;11.23;;;7.30;;
15944;SDS011;30172;48.832;8.732;2023-02-13T09:01:57;12.10;;;7.63;;
15944;SDS011;30172;48.832;8.732;2023-02-13T09:04:23;13.53;;;8.17;;
15944;SDS011;30172;48.832;8.732;2023-02-13T09:06:48;11.07;;;7.40;;
15944;SDS011;30172;48.832;8.732;2023-02-13T09:09:13;10.67;;;8.53;;
15944;SDS011;30172;48.832;8.732;2023-02-13T09:11:40;10.97;;;7.70;;
15944;SDS011;30172;48.832;8.732;2023-02-13T09:14:05;11.40;;;8.50;;
15944;SDS011;30172;48.832;8.732;2023-02-13T09:16:30;12.70;;;8.10;;
15944;SDS011;30172;48.832;8.732;2023-02-13T09:18:56;10.10;;;6.97;;
15944;SDS011;30172;48.832;8.732;2023-02-13T09:21:21;14.77;;;10.47;;
15944;SDS011;30172;48.832;8.732;2023-02-13T09:23:47;11.33;;;7.50;;
15944;SDS011;30172;48.832;8.732;2023-02-13T09:26:14;11.10;;;6.93;;
15944;SDS011;30172;48.832;8.732;2023-02-13T09:28:40;10.07;;;7.30;;
15944;SDS011;30172;48.832;8.732;2023-02-13T09:31:06;11.67;;;7.63;;
15944;SDS011;30172;48.832;8.732;2023-02-13T09:33:46;9.37;;;6.90;;
15944;SDS011;30172;48.832;8.732;2023-02-13T09:36:13;8.50;;;6.40;;
15944;SDS011;30172;48.832;8.732;2023-02-13T09:38:40;8.70;;;6.40;;
15944;SDS011;30172;48.832;8.732;2023-02-13T09:44:00;11.57;;;7.40;;
15944;SDS011;30172;48.832;8.732;2023-02-13T09:46:30;8.83;;;6.40;;
15944;SDS011;30172;48.832;8.732;2023-02-13T09:48:58;10.03;;;7.03;;
15944;SDS011;30172;48.832;8.732;2023-02-13T09:51:26;8.57;;;6.53;;
15944;SDS011;30172;48.832;8.732;2023-02-13T09:59:11;9.47;;;7.00;;
15944;SDS011;30172;48.832;8.732;2023-02-13T10:01:53;10.70;;;6.77;;
15944;SDS011;30172;48.832;8.732;2023-02-13T10:07:11;9.67;;;7.10;;
15944;SDS011;30172;48.832;8.732;2023-02-13T10:17:44;10.80;;;6.67;;
15944;SDS011;30172;48.832;8.732;2023-02-13T10:20:24;8.20;;;6.77;;
15944;SDS011;30172;48.832;8.732;2023-02-13T10:23:02;8.73;;;6.57;;
15944;SDS011;30172;48.832;8.732;2023-02-13T10:25:43;7.77;;;5.90;;
15944;SDS011;30172;48.832;8.732;2023-02-13T10:28:13;8.53;;;5.60;;
15944;SDS011;30172;48.832;8.732;2023-02-13T10:30:49;7.37;;;5.43;;
15944;SDS011;30172;48.832;8.732;2023-02-13T10:38:35;9.43;;;6.23;;
15944;SDS011;30172;48.832;8.732;2023-02-13T10:41:18;8.97;;;6.53;;
15944;SDS011;30172;48.832;8.732;2023-02-13T10:46:43;10.23;;;7.17;;
15944;SDS011;30172;48.832;8.732;2023-02-13T10:58:25;12.97;;;9.90;;
15944;SDS011;30172;48.832;8.732;2023-02-13T11:01:01;14.27;;;11.03;;
15944;SDS011;30172;48.832;8.732;2023-02-13T11:03:48;16.83;;;12.37;;
15944;SDS011;30172;48.832;8.732;2023-02-13T11:06:26;13.33;;;9.93;;
15944;SDS011;30172;48.832;8.732;2023-02-13T11:08:52;13.63;;;9.83;;
15944;SDS011;30172;48.832;8.732;2023-02-13T11:11:33;13.20;;;9.00;;
15944;SDS011;30172;48.832;8.732;2023-02-13T11:14:09;12.40;;;9.07;;
15944;SDS011;30172;48.832;8.732;2023-02-13T11:16:38;14.00;;;8.97;;
15944;SDS011;30172;48.832;8.732;2023-02-13T11:19:05;12.97;;;9.40;;
15944;SDS011;30172;48.832;8.732;2023-02-13T11:21:32;12.13;;;9.33;;
15944;SDS011;30172;48.832;8.732;2023-02-13T11:23:59;12.63;;;9.33;;
15944;SDS011;30172;48.832;8.732;2023-02-13T11:26:31;12.57;;;9.43;;
15944;SDS011;30172;48.832;8.732;2023-02-13T11:28:59;13.03;;;9.57;;
15944;SDS011;30172;48.832;8.732;2023-02-13T11:31:35;10.10;;;8.23;;
15944;SDS011;30172;48.832;8.732;2023-02-13T11:36:45;12.80;;;10.07;;
15944;SDS011;30172;48.832;8.732;2023-02-13T11:39:17;11.73;;;9.10;;
15944;SDS011;30172;48.832;8.732;2023-02-13T11:41:44;13.87;;;10.00;;
15944;SDS011;30172;48.832;8.732;2023-02-13T11:44:47;13.20;;;9.13;;
15944;SDS011;30172;48.832;8.732;2023-02-13T11:47:02;11.07;;;9.17;;
15944;SDS011;30172;48.832;8.732;2023-02-13T11:49:28;11.53;;;9.20;;
15944;SDS011;30172;48.832;8.732;2023-02-13T11:52:02;12.17;;;9.50;;
15944;SDS011;30172;48.832;8.732;2023-02-13T11:56:55;10.80;;;8.97;;
15944;SDS011;30172;48.832;8.732;2023-02-13T11:59:23;13.03;;;9.53;;
15944;SDS011;30172;48.832;8.732;2023-02-13T12:04:41;11.43;;;8.97;;
15944;SDS011;30172;48.832;8.732;2023-02-13T12:07:23;10.63;;;8.13;;
15944;SDS011;30172;48.832;8.732;2023-02-13T12:12:53;11.00;;;8.07;;
15944;SDS011;30172;48.832;8.732;2023-02-13T12:15:27;11.80;;;8.30;;
15944;SDS011;30172;48.832;8.732;2023-02-13T12:18:12;11.53;;;7.73;;
15944;SDS011;30172;48.832;8.732;2023-02-13T12:20:56;8.50;;;6.90;;
15944;SDS011;30172;48.832;8.732;2023-02-13T12:26:19;6.97;;;6.23;;
15944;SDS011;30172;48.832;8.732;2023-02-13T12:31:52;8.97;;;7.00;;
15944;SDS011;30172;48.832;8.732;2023-02-13T12:37:42;8.90;;;7.27;;
15944;SDS011;30172;48.832;8.732;2023-02-13T12:46:14;10.97;;;7.43;;
15944;SDS011;30172;48.832;8.732;2023-02-13T12:51:55;11.35;;;8.88;;
15944;SDS011;30172;48.832;8.732;2023-02-13T12:57:35;11.80;;;8.23;;
15944;SDS011;30172;48.832;8.732;2023-02-13T13:16:25;10.93;;;8.17;;
15944;SDS011;30172;48.832;8.732;2023-02-13T13:19:12;12.00;;;8.50;;
15944;SDS011;30172;48.832;8.732;2023-02-13T13:21:47;11.07;;;7.90;;
15944;SDS011;30172;48.832;8.732;2023-02-13T13:27:30;9.67;;;7.80;;
15944;SDS011;30172;48.832;8.732;2023-02-13T13:29:58;14.13;;;8.70;;
15944;SDS011;30172;48.832;8.732;2023-02-13T13:32:28;11.97;;;8.23;;
15944;SDS011;30172;48.832;8.732;2023-02-13T13:34:54;12.20;;;9.17;;
15944;SDS011;30172;48.832;8.732;2023-02-13T13:50:40;11.67;;;8.47;;
15944;SDS011;30172;48.832;8.732;2023-02-13T13:53:09;13.60;;;7.87;;
15944;SDS011;30172;48.832;8.732;2023-02-13T13:58:33;12.47;;;8.33;;
15944;SDS011;30172;48.832;8.732;2023-02-13T14:03:57;14.53;;;8.87;;
15944;SDS011;30172;48.832;8.732;2023-02-13T14:06:24;10.17;;;8.40;;
15944;SDS011;30172;48.832;8.732;2023-02-13T14:08:52;11.37;;;8.97;;
15944;SDS011;30172;48.832;8.732;2023-02-13T14:11:32;12.20;;;8.73;;
15944;SDS011;30172;48.832;8.732;2023-02-13T14:13:59;13.03;;;8.53;;
15944;SDS011;30172;48.832;8.732;2023-02-13T14:16:42;10.03;;;7.87;;
15944;SDS011;30172;48.832;8.732;2023-02-13T14:19:23;10.53;;;8.93;;
15944;SDS011;30172;48.832;8.732;2023-02-13T14:24:50;11.50;;;8.70;;
15944;SDS011;30172;48.832;8.732;2023-02-13T14:27:20;15.53;;;9.63;;
15944;SDS011;30172;48.832;8.732;2023-02-13T14:29:46;12.10;;;9.17;;
15944;SDS011;30172;48.832;8.732;2023-02-13T14:32:17;12.07;;;9.23;;
15944;SDS011;30172;48.832;8.732;2023-02-13T14:34:49;12.47;;;9.07;;
15944;SDS011;30172;48.832;8.732;2023-02-13T14:37:18;13.47;;;9.07;;
15944;SDS011;30172;48.832;8.732;2023-02-13T14:42:42;13.40;;;9.40;;
15944;SDS011;30172;48.832;8.732;2023-02-13T14:45:17;14.27;;;10.10;;
15944;SDS011;30172;48.832;8.732;2023-02-13T14:47:48;13.07;;;10.20;;
15944;SDS011;30172;48.832;8.732;2023-02-13T14:52:52;13.83;;;10.33;;
15944;SDS011;30172;48.832;8.732;2023-02-13T14:55:52;12.43;;;9.40;;
15944;SDS011;30172;48.832;8.732;2023-02-13T15:00:40;11.60;;;9.57;;
15944;SDS011;30172;48.832;8.732;2023-02-13T15:03:19;12.50;;;10.60;;
15944;SDS011;30172;48.832;8.732;2023-02-13T15:05:49;14.93;;;9.93;;
15944;SDS011;30172;48.832;8.732;2023-02-13T15:08:39;14.00;;;9.60;;
15944;SDS011;30172;48.832;8.732;2023-02-13T15:11:04;14.17;;;10.07;;
15944;SDS011;30172;48.832;8.732;2023-02-13T15:13:49;14.20;;;9.80;;
15944;SDS011;30172;48.832;8.732;2023-02-13T15:16:14;10.80;;;8.90;;
15944;SDS011;30172;48.832;8.732;2023-02-13T15:18:47;12.27;;;9.63;;
15944;SDS011;30172;48.832;8.732;2023-02-13T15:21:14;12.70;;;9.33;;
15944;SDS011;30172;48.832;8.732;2023-02-13T15:23:41;10.83;;;8.93;;
15944;SDS011;30172;48.832;8.732;2023-02-13T15:26:07;13.67;;;9.90;;
15944;SDS011;30172;48.832;8.732;2023-02-13T15:28:33;14.07;;;9.67;;
15944;SDS011;30172;48.832;8.732;2023-02-13T15:31:00;12.40;;;9.40;;
15944;SDS011;30172;48.832;8.732;2023-02-13T15:33:46;12.03;;;9.47;;
15944;SDS011;30172;48.832;8.732;2023-02-13T15:36:17;13.70;;;10.33;;
15944;SDS011;30172;48.832;8.732;2023-02-13T15:38:45;12.87;;;10.40;;
15944;SDS011;30172;48.832;8.732;2023-02-13T15:41:18;11.83;;;9.57;;
15944;SDS011;30172;48.832;8.732;2023-02-13T15:43:47;10.83;;;8.73;;
15944;SDS011;30172;48.832;8.732;2023-02-13T15:46:17;11.77;;;9.40;;
15944;SDS011;30172;48.832;8.732;2023-02-13T15:48:54;12.93;;;9.70;;
15944;SDS011;30172;48.832;8.732;2023-02-13T15:51:26;11.43;;;8.97;;
15944;SDS011;30172;48.832;8.732;2023-02-13T15:53:54;10.27;;;8.20;;
15944;SDS011;30172;48.832;8.732;2023-02-13T15:56:21;12.83;;;8.63;;
15944;SDS011;30172;48.832;8.732;2023-02-13T15:58:47;12.33;;;8.87;;
15944;SDS011;30172;48.832;8.732;2023-02-13T16:01:13;11.33;;;7.97;;
15944;SDS011;30172;48.832;8.732;2023-02-13T16:03:39;9.30;;;8.20;;
15944;SDS011;30172;48.832;8.732;2023-02-13T16:06:06;10.00;;;8.17;;
15944;SDS011;30172;48.832;8.732;2023-02-13T16:08:33;10.50;;;8.07;;
15944;SDS011;30172;48.832;8.732;2023-02-13T16:11:13;10.57;;;8.27;;
15944;SDS011;30172;48.832;8.732;2023-02-13T16:16:30;9.40;;;7.50;;
15944;SDS011;30172;48.832;8.732;2023-02-13T16:18:58;10.43;;;8.17;;
15944;SDS011;30172;48.832;8.732;2023-02-13T16:21:25;10.27;;;7.33;;
15944;SDS011;30172;48.832;8.732;2023-02-13T16:23:59;9.27;;;7.37;;
15944;SDS011;30172;48.832;8.732;2023-02-13T16:26:28;11.13;;;7.90;;
15944;SDS011;30172;48.832;8.732;2023-02-13T16:28:55;8.57;;;7.53;;
15944;SDS011;30172;48.832;8.732;2023-02-13T16:31:20;9.73;;;8.03;;
15944;SDS011;30172;48.832;8.732;2023-02-13T16:33:46;8.93;;;7.63;;
15944;SDS011;30172;48.832;8.732;2023-02-13T16:43:42;8.80;;;7.27;;
15944;SDS011;30172;48.832;8.732;2023-02-13T16:46:12;11.33;;;7.37;;
15944;SDS011;30172;48.832;8.732;2023-02-13T16:48:46;9.63;;;7.87;;
15944;SDS011;30172;48.832;8.732;2023-02-13T16:53:57;13.07;;;10.57;;
15944;SDS011;30172;48.832;8.732;2023-02-13T16:56:44;12.67;;;10.37;;
15944;SDS011;30172;48.832;8.732;2023-02-13T17:02:53;11.27;;;9.50;;
15944;SDS011;30172;48.832;8.732;2023-02-13T17:04:51;11.23;;;9.13;;
15944;SDS011;30172;48.832;8.732;2023-02-13T17:07:20;10.77;;;8.70;;
15944;SDS011;30172;48.832;8.732;2023-02-13T17:09:52;12.53;;;9.67;;
15944;SDS011;30172;48.832;8.732;2023-02-13T17:12:19;11.17;;;9.90;;
15944;SDS011;30172;48.832;8.732;2023-02-13T17:14:45;11.87;;;9.67;;
15944;SDS011;30172;48.832;8.732;2023-02-13T17:17:11;11.87;;;10.30;;
15944;SDS011;30172;48.832;8.732;2023-02-13T17:19:40;12.27;;;8.80;;
15944;SDS011;30172;48.832;8.732;2023-02-13T17:22:11;10.53;;;8.77;;
15944;SDS011;30172;48.832;8.732;2023-02-13T17:24:42;12.77;;;9.93;;
15944;SDS011;30172;48.832;8.732;2023-02-13T17:27:07;13.37;;;10.63;;
15944;SDS011;30172;48.832;8.732;2023-02-13T17:29:33;14.50;;;12.57;;
15944;SDS011;30172;48.832;8.732;2023-02-13T17:31:59;14.57;;;11.63;;
15944;SDS011;30172;48.832;8.732;2023-02-13T17:34:24;14.77;;;12.10;;
15944;SDS011;30172;48.832;8.732;2023-02-13T17:36:49;16.13;;;13.20;;
15944;SDS011;30172;48.832;8.732;2023-02-13T17:39:14;19.27;;;14.77;;
15944;SDS011;30172;48.832;8.732;2023-02-13T17:41:40;22.67;;;15.57;;
15944;SDS011;30172;48.832;8.732;2023-02-13T17:44:07;25.30;;;17.50;;
15944;SDS011;30172;48.832;8.732;2023-02-13T17:46:36;22.53;;;17.50;;